createdAt,value
2018-09-21T00:01:13.664Z,100762.00
2018-09-21T00:03:47.767Z,100748.00
2018-09-21T00:06:17.083Z,100745.00
2018-09-21T00:08:46.392Z,100745.00
2018-09-21T00:11:15.815Z,100744.00
2018-09-21T00:13:45.102Z,100738.00
2018-09-21T00:16:14.511Z,100731.00
2018-09-21T00:18:43.947Z,100725.00
2018-09-21T00:21:13.638Z,100723.00
2018-09-21T00:23:43.642Z,100724.00
2018-09-21T00:26:13.730Z,100721.00
2018-09-21T00:28:43.806Z,100711.00
2018-09-21T00:31:13.751Z,100705.00
2018-09-21T00:33:43.758Z,100704.00
2018-09-21T00:36:13.863Z,100701.00
2018-09-21T00:38:43.754Z,100701.00
2018-09-21T00:41:13.710Z,100699.00
2018-09-21T00:43:43.732Z,100697.00
2018-09-21T00:46:13.733Z,100693.00
2018-09-21T00:48:43.793Z,100693.00
2018-09-21T00:51:13.806Z,100689.00
2018-09-21T00:53:43.767Z,100693.00
2018-09-21T00:56:13.910Z,100690.00
2018-09-21T00:58:45.265Z,100690.00
2018-09-21T01:01:14.578Z,100689.00
2018-09-21T01:03:43.912Z,100679.00
2018-09-21T01:06:13.744Z,100677.00
2018-09-21T01:08:44.579Z,100661.00
2018-09-21T01:11:14.458Z,100659.00
2018-09-21T01:13:43.817Z,100650.00
2018-09-21T01:16:13.823Z,100652.00
2018-09-21T01:18:44.049Z,100650.00
2018-09-21T01:21:13.792Z,100642.00
2018-09-21T01:23:43.825Z,100636.00
2018-09-21T01:26:13.809Z,100634.00
2018-09-21T01:28:43.822Z,100623.00
2018-09-21T01:31:13.795Z,100618.00
2018-09-21T01:33:43.891Z,100623.00
2018-09-21T01:36:13.802Z,100618.00
2018-09-21T01:38:43.912Z,100612.00
2018-09-21T01:41:13.801Z,100611.00
2018-09-21T01:43:43.875Z,100609.00
2018-09-21T01:46:13.908Z,100611.00
2018-09-21T01:48:43.864Z,100612.00
2018-09-21T01:51:13.839Z,100605.00
2018-09-21T01:53:43.855Z,100607.00
2018-09-21T01:56:13.839Z,100595.00
2018-09-21T01:58:43.872Z,100597.00
2018-09-21T02:01:13.892Z,100585.00
2018-09-21T02:03:43.906Z,100575.00
2018-09-21T02:06:13.890Z,100565.00
2018-09-21T02:08:43.921Z,100553.00
2018-09-21T02:11:13.903Z,100554.00
2018-09-21T02:13:43.919Z,100547.00
2018-09-21T02:16:13.854Z,100542.00
2018-09-21T02:18:43.947Z,100536.00
2018-09-21T02:21:13.980Z,100531.00
2018-09-21T02:23:43.931Z,100533.00
2018-09-21T02:26:14.036Z,100530.00
2018-09-21T02:28:44.024Z,100533.00
2018-09-21T02:31:14.083Z,100525.00
2018-09-21T02:33:44.039Z,100526.00
2018-09-21T02:36:14.119Z,100520.00
2018-09-21T02:38:44.011Z,100517.00
2018-09-21T02:41:14.071Z,100515.00
2018-09-21T02:43:43.994Z,100514.00
2018-09-21T02:46:14.126Z,100500.00
2018-09-21T02:48:44.198Z,100495.00
2018-09-21T02:51:14.014Z,100502.00
2018-09-21T02:53:44.058Z,100497.00
2018-09-21T02:56:14.106Z,100488.00
2018-09-21T02:58:44.164Z,100476.00
2018-09-21T03:01:14.097Z,100465.00
2018-09-21T03:03:44.079Z,100451.00
2018-09-21T03:06:14.317Z,100449.00
2018-09-21T03:08:44.134Z,100449.00
2018-09-21T03:11:14.111Z,100439.00
2018-09-21T03:13:44.088Z,100439.00
2018-09-21T03:16:14.140Z,100445.00
2018-09-21T03:18:44.183Z,100439.00
2018-09-21T03:21:14.065Z,100431.00
2018-09-21T03:23:44.208Z,100434.00
2018-09-21T03:26:14.123Z,100426.00
2018-09-21T03:28:44.121Z,100413.00
2018-09-21T03:31:14.075Z,100406.00
2018-09-21T03:33:44.088Z,100402.00
2018-09-21T03:36:14.164Z,100394.00
2018-09-21T03:38:44.124Z,100390.00
2018-09-21T03:41:14.348Z,100382.00
2018-09-21T03:43:44.171Z,100369.00
2018-09-21T03:46:14.167Z,100361.00
2018-09-21T03:48:44.368Z,100347.00
2018-09-21T03:51:14.314Z,100347.00
2018-09-21T03:53:44.134Z,100340.00
2018-09-21T03:56:14.129Z,100335.00
2018-09-21T03:58:44.162Z,100332.00
2018-09-21T04:01:14.176Z,100317.00
2018-09-21T04:03:44.239Z,100324.00
2018-09-21T04:06:14.279Z,100310.00
2018-09-21T04:08:44.183Z,100302.00
2018-09-21T04:11:14.237Z,100292.00
2018-09-21T04:13:44.240Z,100298.00
2018-09-21T04:16:14.274Z,100292.00
2018-09-21T04:18:44.249Z,100288.00
2018-09-21T04:21:14.215Z,100278.00
2018-09-21T04:23:44.248Z,100262.00
2018-09-21T04:26:14.243Z,100259.00
2018-09-21T04:28:44.178Z,100253.00
2018-09-21T04:31:14.266Z,100249.00
2018-09-21T04:33:44.281Z,100250.00
2018-09-21T04:36:14.360Z,100236.00
2018-09-21T04:38:44.218Z,100227.00
2018-09-21T04:41:14.226Z,100212.00
2018-09-21T04:43:44.280Z,100210.00
2018-09-21T04:46:14.335Z,100199.00
2018-09-21T04:48:44.242Z,100194.00
2018-09-21T04:51:14.231Z,100195.00
2018-09-21T04:53:44.336Z,100183.00
2018-09-21T04:56:14.416Z,100180.00
2018-09-21T04:58:44.378Z,100191.00
2018-09-21T05:01:14.287Z,100177.00
2018-09-21T05:03:44.242Z,100157.00
2018-09-21T05:06:14.353Z,100154.00
2018-09-21T05:08:44.575Z,100140.00
2018-09-21T05:11:14.369Z,100145.00
2018-09-21T05:13:44.404Z,100135.00
2018-09-21T05:16:14.371Z,100132.00
2018-09-21T05:18:44.490Z,100129.00
2018-09-21T05:21:14.276Z,100125.00
2018-09-21T05:23:44.440Z,100137.00
2018-09-21T05:26:14.466Z,100131.00
2018-09-21T05:28:44.315Z,100128.00
2018-09-21T05:31:14.380Z,100123.00
2018-09-21T05:33:44.580Z,100117.00
2018-09-21T05:36:14.380Z,100103.00
2018-09-21T05:38:44.412Z,100104.00
2018-09-21T05:41:14.409Z,100109.00
2018-09-21T05:43:44.313Z,100112.00
2018-09-21T05:46:14.383Z,100102.00
2018-09-21T05:48:44.415Z,100100.00
2018-09-21T05:51:14.450Z,100089.00
2018-09-21T05:53:44.327Z,100091.00
2018-09-21T05:56:14.791Z,100093.00
2018-09-21T05:58:44.383Z,100082.00
2018-09-21T06:01:14.394Z,100080.00
2018-09-21T06:03:44.636Z,100076.00
2018-09-21T06:06:14.409Z,100069.00
2018-09-21T06:08:44.511Z,100069.00
2018-09-21T06:11:14.489Z,100065.00
2018-09-21T06:13:44.612Z,100052.00
2018-09-21T06:16:14.451Z,100037.00
2018-09-21T06:18:44.478Z,100024.00
2018-09-21T06:21:14.551Z,100032.00
2018-09-21T06:23:44.491Z,100019.00
2018-09-21T06:26:14.510Z,100015.00
2018-09-21T06:28:44.494Z,100020.00
2018-09-21T06:31:14.558Z,100012.00
2018-09-21T06:33:44.453Z,100009.00
2018-09-21T06:36:14.445Z,100010.00
2018-09-21T06:38:44.513Z,99999.00
2018-09-21T06:41:14.576Z,99998.00
2018-09-21T06:43:44.483Z,100003.00
2018-09-21T06:46:14.523Z,100001.00
2018-09-21T06:48:44.591Z,99986.00
2018-09-21T06:51:14.654Z,99987.00
2018-09-21T06:53:44.910Z,99972.00
2018-09-21T06:56:14.622Z,99978.00
2018-09-21T06:58:44.484Z,99970.00
2018-09-21T07:01:14.558Z,99976.00
2018-09-21T07:03:44.528Z,99969.00
2018-09-21T07:06:14.521Z,99967.00
2018-09-21T07:08:44.524Z,99980.00
2018-09-21T07:11:14.558Z,99983.00
2018-09-21T07:13:44.515Z,99996.00
2018-09-21T07:16:14.546Z,99998.00
2018-09-21T07:18:44.494Z,99992.00
2018-09-21T07:21:14.561Z,99986.00
2018-09-21T07:23:44.515Z,99974.00
2018-09-21T07:26:14.590Z,99978.00
2018-09-21T07:28:44.629Z,99974.00
2018-09-21T07:31:14.730Z,99962.00
2018-09-21T07:33:44.563Z,99965.00
2018-09-21T07:36:14.642Z,99949.00
2018-09-21T07:38:44.601Z,99948.00
2018-09-21T07:41:14.625Z,99945.00
2018-09-21T07:43:44.666Z,99948.00
2018-09-21T07:46:14.580Z,99940.00
2018-09-21T07:48:44.648Z,99936.00
2018-09-21T07:51:14.662Z,99924.00
2018-09-21T07:53:44.630Z,99914.00
2018-09-21T07:56:14.669Z,99912.00
2018-09-21T07:58:44.659Z,99927.00
2018-09-21T08:01:14.592Z,99918.00
2018-09-21T08:03:44.729Z,99918.00
2018-09-21T08:06:14.641Z,99897.00
2018-09-21T08:08:44.602Z,99904.00
2018-09-21T08:11:14.767Z,99899.00
2018-09-21T08:13:44.682Z,99904.00
2018-09-21T08:16:14.729Z,99889.00
2018-09-21T08:18:44.642Z,99903.00
2018-09-21T08:21:14.649Z,99909.00
2018-09-21T08:23:44.669Z,99916.00
2018-09-21T08:26:14.663Z,99916.00
2018-09-21T08:28:44.764Z,99928.00
2018-09-21T08:31:14.764Z,99933.00
2018-09-21T08:33:44.738Z,99932.00
2018-09-21T08:36:14.739Z,99902.00
2018-09-21T08:38:44.715Z,99917.00
2018-09-21T08:41:14.758Z,99950.00
2018-09-21T08:43:44.922Z,99947.00
2018-09-21T08:46:15.674Z,99969.00
2018-09-21T08:48:45.708Z,99967.00
2018-09-21T08:51:15.103Z,99967.00
2018-09-21T08:53:45.027Z,99976.00
2018-09-21T08:56:14.778Z,99994.00
2018-09-21T08:58:44.775Z,100014.00
2018-09-21T09:01:14.834Z,100005.00
2018-09-21T09:03:44.847Z,99995.00
2018-09-21T09:06:14.758Z,99993.00
2018-09-21T09:08:44.855Z,100019.00
2018-09-21T09:11:14.734Z,100018.00
2018-09-21T09:13:44.833Z,100024.00
2018-09-21T09:16:14.825Z,100039.00
2018-09-21T09:18:44.824Z,100031.00
2018-09-21T09:21:14.880Z,100042.00
2018-09-21T09:23:44.830Z,100056.00
2018-09-21T09:26:14.825Z,100051.00
2018-09-21T09:28:44.825Z,100055.00
2018-09-21T09:31:14.819Z,100042.00
2018-09-21T09:33:44.904Z,100068.00
2018-09-21T09:36:14.801Z,100049.00
2018-09-21T09:38:44.813Z,100066.00
2018-09-21T09:41:14.964Z,100063.00
2018-09-21T09:43:44.834Z,100068.00
2018-09-21T09:46:14.830Z,100070.00
2018-09-21T09:48:44.933Z,100074.00
2018-09-21T09:51:14.866Z,100073.00
2018-09-21T09:53:44.994Z,100069.00
2018-09-21T09:56:14.836Z,100072.00
2018-09-21T09:58:44.843Z,100056.00
2018-09-21T10:01:14.870Z,100055.00
2018-09-21T10:03:45.031Z,100046.00
2018-09-21T10:06:14.877Z,100030.00
2018-09-21T10:08:44.875Z,100018.00
2018-09-21T10:11:14.850Z,100027.00
2018-09-21T10:13:44.908Z,100033.00
2018-09-21T10:16:14.964Z,100049.00
2018-09-21T10:18:44.943Z,100056.00
2018-09-21T10:21:14.932Z,100070.00
2018-09-21T10:23:45.043Z,100159.00
2018-09-21T10:26:15.038Z,100166.00
2018-09-21T10:28:45.089Z,100165.00
2018-09-21T10:31:14.934Z,100163.00
2018-09-21T10:33:45.177Z,100161.00
2018-09-21T10:36:14.922Z,100175.00
2018-09-21T10:38:44.954Z,100173.00
2018-09-21T10:41:14.947Z,100179.00
2018-09-21T10:43:44.964Z,100184.00
2018-09-21T10:46:14.953Z,100186.00
2018-09-21T10:48:45.095Z,100202.00
2018-09-21T10:51:14.973Z,100196.00
2018-09-21T10:53:45.058Z,100207.00
2018-09-21T10:59:08.270Z,100190.00
2018-09-21T11:01:37.647Z,100187.00
2018-09-21T11:04:07.014Z,100199.00
2018-09-21T11:06:36.303Z,100205.00
2018-09-21T11:09:09.398Z,100207.00
2018-09-21T11:11:39.042Z,100216.00
2018-09-21T11:14:08.440Z,100221.00
2018-09-21T11:16:37.772Z,100231.00
2018-09-21T11:19:07.190Z,100230.00
2018-09-21T11:21:36.467Z,100232.00
2018-09-21T11:24:05.796Z,100220.00
2018-09-21T11:26:35.178Z,100226.00
2018-09-21T11:29:04.613Z,100245.00
2018-09-21T11:31:33.987Z,100243.00
2018-09-21T11:34:03.309Z,100229.00
2018-09-21T11:36:32.646Z,100231.00
2018-09-21T11:39:02.010Z,100244.00
2018-09-21T11:41:31.341Z,100248.00
2018-09-21T11:44:00.659Z,100263.00
2018-09-21T11:46:29.950Z,100271.00
2018-09-21T11:48:59.293Z,100288.00
2018-09-21T11:51:28.576Z,100301.00
2018-09-21T11:53:57.894Z,100302.00
2018-09-21T11:56:27.266Z,100300.00
2018-09-21T11:58:56.558Z,100282.00
2018-09-21T12:01:25.945Z,100299.00
2018-09-21T12:03:55.278Z,100306.00
2018-09-21T12:06:24.559Z,100306.00
2018-09-21T12:08:53.863Z,100331.00
2018-09-21T12:11:23.182Z,100328.00
2018-09-21T12:13:52.483Z,100341.00
2018-09-21T12:16:21.747Z,100340.00
2018-09-21T12:18:51.063Z,100320.00
2018-09-21T12:21:20.456Z,100344.00
2018-09-21T12:23:49.838Z,100313.00
2018-09-21T12:26:19.287Z,100343.00
2018-09-21T12:28:48.671Z,100299.00
2018-09-21T12:31:18.158Z,100331.00
2018-09-21T12:33:47.434Z,100329.00
2018-09-21T12:36:16.943Z,100328.00
2018-09-21T12:38:46.302Z,100344.00
2018-09-21T12:41:15.627Z,100344.00
2018-09-21T12:43:45.314Z,100351.00
2018-09-21T12:46:26.334Z,100357.00
2018-09-21T12:49:00.554Z,100363.00
2018-09-21T12:51:29.886Z,100362.00
2018-09-21T12:53:59.231Z,100363.00
2018-09-21T12:56:28.613Z,100364.00
2018-09-21T12:58:57.889Z,100381.00
2018-09-21T13:01:27.263Z,100391.00
2018-09-21T13:03:56.615Z,100396.00
2018-09-21T13:06:26.016Z,100384.00
2018-09-21T13:08:55.294Z,100390.00
2018-09-21T13:11:24.629Z,100391.00
2018-09-21T13:13:53.963Z,100384.00
2018-09-21T13:16:23.399Z,100384.00
2018-09-21T13:18:52.786Z,100387.00
2018-09-21T13:21:22.120Z,100391.00
2018-09-21T13:23:51.413Z,100393.00
2018-09-21T13:26:20.791Z,100398.00
2018-09-21T13:28:50.123Z,100398.00
2018-09-21T13:31:19.422Z,100389.00
2018-09-21T13:33:48.776Z,100399.00
2018-09-21T13:36:18.117Z,100401.00
2018-09-21T13:38:47.457Z,100399.00
2018-09-21T13:41:16.823Z,100413.00
2018-09-21T13:43:46.270Z,100406.00
2018-09-21T13:46:15.554Z,100410.00
2018-09-21T13:48:45.382Z,100424.00
2018-09-21T13:51:15.456Z,100424.00
2018-09-21T13:53:45.417Z,100412.00
2018-09-21T13:56:15.335Z,100421.00
2018-09-21T13:58:45.582Z,100427.00
2018-09-21T14:01:15.379Z,100423.00
2018-09-21T14:03:45.371Z,100431.00
2018-09-21T14:06:15.486Z,100437.00
2018-09-21T14:08:45.406Z,100442.00
2018-09-21T14:11:15.392Z,100440.00
2018-09-21T14:13:45.851Z,100445.00
2018-09-21T14:16:15.315Z,100444.00
2018-09-21T14:18:44.621Z,100445.00
2018-09-21T14:21:14.175Z,100451.00
2018-09-21T14:23:43.463Z,100450.00
2018-09-21T14:26:12.746Z,100456.00
2018-09-21T14:28:42.055Z,100460.00
2018-09-21T14:31:11.572Z,100464.00
2018-09-21T14:33:40.864Z,100460.00
2018-09-21T14:36:10.190Z,100466.00
2018-09-21T14:38:39.792Z,100461.00
2018-09-21T14:41:09.117Z,100460.00
2018-09-21T14:43:40.452Z,100467.00
2018-09-21T14:46:09.751Z,100465.00
2018-09-21T14:48:39.030Z,100469.00
2018-09-21T14:51:08.383Z,100474.00
2018-09-21T14:53:37.655Z,100482.00
2018-09-21T14:56:07.031Z,100498.00
2018-09-21T14:58:36.363Z,100489.00
2018-09-21T15:01:05.719Z,100496.00
2018-09-21T15:03:35.731Z,100497.00
2018-09-21T15:06:05.059Z,100517.00
2018-09-21T15:08:34.408Z,100527.00
2018-09-21T15:11:03.774Z,100525.00
2018-09-21T15:13:33.080Z,100528.00
2018-09-21T15:16:02.402Z,100532.00
2018-09-21T15:18:31.926Z,100536.00
2018-09-21T15:21:01.239Z,100526.00
2018-09-21T15:23:31.375Z,100530.00
2018-09-21T15:26:01.198Z,100536.00
2018-09-21T15:28:31.148Z,100542.00
2018-09-21T15:31:01.111Z,100530.00
2018-09-21T15:33:31.137Z,100530.00
2018-09-21T15:36:01.191Z,100536.00
2018-09-21T15:38:31.220Z,100543.00
2018-09-21T15:41:01.107Z,100529.00
2018-09-21T15:43:31.191Z,100530.00
2018-09-21T15:46:01.177Z,100542.00
2018-09-21T15:48:31.178Z,100545.00
2018-09-21T15:51:01.147Z,100545.00
2018-09-21T15:53:31.217Z,100549.00
2018-09-21T15:56:01.175Z,100543.00
2018-09-21T15:58:31.131Z,100549.00
2018-09-21T16:01:01.261Z,100548.00
2018-09-21T16:03:31.178Z,100542.00
2018-09-21T16:06:01.293Z,100546.00
2018-09-21T16:08:31.206Z,100544.00
2018-09-21T16:11:01.429Z,100550.00
2018-09-21T16:13:31.271Z,100551.00
2018-09-21T16:16:01.187Z,100551.00
2018-09-21T16:18:31.250Z,100557.00
2018-09-21T16:21:01.225Z,100558.00
2018-09-21T16:23:31.283Z,100551.00
2018-09-21T16:26:01.306Z,100560.00
2018-09-21T16:28:31.309Z,100560.00
2018-09-21T16:31:01.259Z,100571.00
2018-09-21T16:33:31.194Z,100577.00
2018-09-21T16:36:01.348Z,100576.00
2018-09-21T16:38:31.343Z,100579.00
2018-09-21T16:41:01.329Z,100588.00
2018-09-21T16:43:31.394Z,100588.00
2018-09-21T16:46:01.231Z,100596.00
2018-09-21T16:48:31.245Z,100600.00
2018-09-21T16:51:01.331Z,100605.00
2018-09-21T16:53:31.303Z,100608.00
2018-09-21T16:56:01.361Z,100610.00
2018-09-21T16:58:31.312Z,100614.00
2018-09-21T17:01:01.310Z,100605.00
2018-09-21T17:03:31.329Z,100617.00
2018-09-21T17:06:01.378Z,100622.00
2018-09-21T17:08:31.366Z,100621.00
2018-09-21T17:11:01.348Z,100631.00
2018-09-21T17:13:31.579Z,100633.00
2018-09-21T17:16:01.438Z,100629.00
2018-09-21T17:18:31.347Z,100631.00
2018-09-21T17:21:01.533Z,100631.00
2018-09-21T17:23:31.439Z,100650.00
2018-09-21T17:26:01.681Z,100640.00
2018-09-21T17:28:31.407Z,100641.00
2018-09-21T17:31:01.360Z,100632.00
2018-09-21T17:33:31.405Z,100642.00
2018-09-21T17:36:01.445Z,100647.00
2018-09-21T17:38:31.415Z,100651.00
2018-09-21T17:41:01.402Z,100652.00
2018-09-21T17:43:31.432Z,100660.00
2018-09-21T17:46:01.445Z,100663.00
2018-09-21T17:48:31.357Z,100686.00
2018-09-21T17:51:01.453Z,100693.00
2018-09-21T17:53:31.401Z,100685.00
2018-09-21T17:56:01.431Z,100697.00
2018-09-21T17:58:31.474Z,100694.00
2018-09-21T18:01:01.595Z,100712.00
2018-09-21T18:03:31.513Z,100725.00
2018-09-21T18:06:01.479Z,100716.00
2018-09-21T18:08:31.473Z,100718.00
2018-09-21T18:11:01.618Z,100717.00
2018-09-21T18:13:31.454Z,100714.00
2018-09-21T18:16:01.539Z,100727.00
2018-09-21T18:18:31.433Z,100725.00
2018-09-21T18:21:01.427Z,100736.00
2018-09-21T18:23:31.805Z,100744.00
2018-09-21T18:26:01.515Z,100752.00
2018-09-21T18:28:31.558Z,100758.00
2018-09-21T18:31:01.444Z,100758.00
2018-09-21T18:33:31.518Z,100771.00
2018-09-21T18:36:01.528Z,100770.00
2018-09-21T18:38:31.451Z,100774.00
2018-09-21T18:41:01.660Z,100779.00
2018-09-21T18:43:31.566Z,100780.00
2018-09-21T18:46:01.677Z,100784.00
2018-09-21T18:48:31.517Z,100786.00
2018-09-21T18:51:01.477Z,100796.00
2018-09-21T18:53:31.555Z,100795.00
2018-09-21T18:56:01.586Z,100798.00
2018-09-21T18:58:31.563Z,100804.00
2018-09-21T19:01:08.561Z,100801.00
2018-09-21T19:03:38.062Z,100807.00
2018-09-21T19:06:11.205Z,100814.00
2018-09-21T19:08:40.639Z,100814.00
2018-09-21T19:11:10.023Z,100821.00
2018-09-21T19:13:39.336Z,100824.00
2018-09-21T19:16:08.993Z,100833.00
2018-09-21T19:18:43.357Z,100840.00
2018-09-21T19:21:16.864Z,100825.00
2018-09-21T19:23:50.704Z,100841.00
2018-09-21T19:26:20.185Z,100839.00
2018-09-21T19:28:49.491Z,100842.00
2018-09-21T19:31:19.214Z,100848.00
2018-09-21T19:33:54.083Z,100857.00
2018-09-21T19:36:30.200Z,100852.00
2018-09-21T19:38:59.530Z,100855.00
2018-09-21T19:41:32.922Z,100852.00
2018-09-21T19:44:08.988Z,100855.00
2018-09-21T19:46:38.613Z,100867.00
2018-09-21T19:49:07.910Z,100872.00
2018-09-21T19:51:37.908Z,100880.00
2018-09-21T19:54:07.323Z,100887.00
2018-09-21T19:56:36.678Z,100886.00
2018-09-21T19:59:06.101Z,100882.00
2018-09-21T20:01:35.456Z,100886.00
2018-09-21T20:04:04.825Z,100894.00
2018-09-21T20:06:34.163Z,100891.00
2018-09-21T20:09:03.708Z,100890.00
2018-09-21T20:11:33.094Z,100902.00
2018-09-21T20:14:02.418Z,100905.00
2018-09-21T20:16:32.097Z,100905.00
2018-09-21T20:19:01.630Z,100909.00
2018-09-21T20:21:31.780Z,100901.00
2018-09-21T20:24:01.723Z,100910.00
2018-09-21T20:26:31.754Z,100918.00
2018-09-21T20:29:01.699Z,100927.00
2018-09-21T20:31:36.875Z,100931.00
2018-09-21T20:34:06.180Z,100928.00
2018-09-21T20:36:35.513Z,100931.00
2018-09-21T20:39:06.988Z,100933.00
2018-09-21T20:41:36.361Z,100929.00
2018-09-21T20:44:05.685Z,100924.00
2018-09-21T20:46:35.040Z,100933.00
2018-09-21T20:49:04.394Z,100934.00
2018-09-21T20:51:33.726Z,100929.00
2018-09-21T20:54:03.056Z,100941.00
2018-09-21T20:56:32.773Z,100939.00
2018-09-21T20:59:02.135Z,100942.00
2018-09-21T21:01:31.698Z,100939.00
2018-09-21T21:04:01.929Z,100931.00
2018-09-21T21:06:31.875Z,100928.00
2018-09-21T21:09:01.847Z,100924.00
2018-09-21T21:11:31.812Z,100916.00
2018-09-21T21:14:01.757Z,100933.00
2018-09-21T21:16:31.822Z,100931.00
2018-09-21T21:19:01.818Z,100926.00
2018-09-21T21:21:31.872Z,100927.00
2018-09-21T21:24:01.914Z,100929.00
2018-09-21T21:26:31.806Z,100940.00
2018-09-21T21:29:01.853Z,100954.00
2018-09-21T21:31:31.838Z,100957.00
2018-09-21T21:34:01.777Z,100965.00
2018-09-21T21:36:31.769Z,100968.00
2018-09-21T21:39:01.802Z,100978.00
2018-09-21T21:41:31.802Z,100978.00
2018-09-21T21:44:01.830Z,100994.00
2018-09-21T21:46:31.812Z,100996.00
2018-09-21T21:49:01.819Z,100995.00
2018-09-21T21:51:31.977Z,100991.00
2018-09-21T21:54:01.931Z,101008.00
2018-09-21T21:56:31.970Z,101008.00
2018-09-21T21:59:01.844Z,101003.00
2018-09-21T22:01:37.215Z,101009.00
2018-09-21T22:04:06.585Z,101008.00
2018-09-21T22:06:35.915Z,101005.00
2018-09-21T22:09:07.800Z,100996.00
2018-09-21T22:11:42.440Z,100994.00
2018-09-21T22:14:12.324Z,100995.00
2018-09-21T22:16:41.639Z,100992.00
2018-09-21T22:19:11.516Z,100993.00
2018-09-21T22:21:40.880Z,100996.00
2018-09-21T22:24:10.192Z,100997.00
2018-09-21T22:26:39.509Z,100998.00
2018-09-21T22:29:08.854Z,100990.00
2018-09-21T22:31:38.206Z,100991.00
2018-09-21T22:34:07.578Z,101001.00
2018-09-21T22:36:36.904Z,100988.00
2018-09-21T22:39:08.839Z,100993.00
2018-09-21T22:41:38.152Z,100998.00
2018-09-21T22:44:07.446Z,100995.00
2018-09-21T22:46:36.790Z,100997.00
2018-09-21T22:49:09.174Z,100999.00
2018-09-21T22:51:38.555Z,100997.00
2018-09-21T22:54:07.846Z,101002.00
2018-09-21T22:56:37.174Z,101005.00
2018-09-21T22:59:06.558Z,100999.00
2018-09-21T23:01:35.947Z,101000.00
2018-09-21T23:04:05.301Z,100995.00
2018-09-21T23:06:34.666Z,101003.00
2018-09-21T23:09:04.501Z,101007.00
2018-09-21T23:11:33.841Z,101013.00
2018-09-21T23:14:03.199Z,101017.00
2018-09-21T23:16:32.503Z,101014.00
2018-09-21T23:19:02.055Z,101019.00
2018-09-21T23:21:31.971Z,101023.00
2018-09-21T23:24:05.182Z,101020.00
2018-09-21T23:26:34.522Z,101016.00
2018-09-21T23:29:03.845Z,101018.00
2018-09-21T23:31:33.140Z,101021.00
2018-09-21T23:34:02.460Z,101021.00
2018-09-21T23:36:32.036Z,101028.00
2018-09-21T23:39:02.069Z,101031.00
2018-09-21T23:41:32.091Z,101035.00
2018-09-21T23:44:02.103Z,101034.00
2018-09-21T23:46:32.057Z,101039.00
2018-09-21T23:49:02.054Z,101036.00
2018-09-21T23:51:32.071Z,101041.00
2018-09-21T23:54:02.139Z,101042.00
2018-09-21T23:56:32.025Z,101045.00
2018-09-21T23:59:02.028Z,101050.00
